sensor_id;sensor_type;location;lat;lon;timestamp;P1;durP1;ratioP1;P2;durP2;ratioP2
29044;SDS011;16133;49.486;12.176;2023-04-07T00:00:19;19.33;;;9.82;;
29044;SDS011;16133;49.486;12.176;2023-04-07T00:02:45;24.60;;;11.30;;
29044;SDS011;16133;49.486;12.176;2023-04-07T00:05:11;21.65;;;11.38;;
29044;SDS011;16133;49.486;12.176;2023-04-07T00:07:36;19.60;;;10.20;;
29044;SDS011;16133;49.486;12.176;2023-04-07T00:10:02;23.38;;;10.98;;
29044;SDS011;16133;49.486;12.176;2023-04-07T00:12:27;20.48;;;10.55;;
29044;SDS011;16133;49.486;12.176;2023-04-07T00:14:53;18.52;;;10.27;;
29044;SDS011;16133;49.486;12.176;2023-04-07T00:17:18;21.40;;;10.40;;
29044;SDS011;16133;49.486;12.176;2023-04-07T00:19:44;19.60;;;10.32;;
29044;SDS011;16133;49.486;12.176;2023-04-07T00:22:09;23.50;;;11.00;;
29044;SDS011;16133;49.486;12.176;2023-04-07T00:24:34;26.33;;;10.52;;
29044;SDS011;16133;49.486;12.176;2023-04-07T00:27:00;22.08;;;10.73;;
29044;SDS011;16133;49.486;12.176;2023-04-07T00:29:26;21.40;;;10.10;;
29044;SDS011;16133;49.486;12.176;2023-04-07T00:31:51;20.02;;;10.13;;
29044;SDS011;16133;49.486;12.176;2023-04-07T00:34:16;21.55;;;11.25;;
29044;SDS011;16133;49.486;12.176;2023-04-07T00:36:42;24.77;;;11.48;;
29044;SDS011;16133;49.486;12.176;2023-04-07T00:39:07;24.13;;;10.68;;
29044;SDS011;16133;49.486;12.176;2023-04-07T00:41:33;20.75;;;10.20;;
29044;SDS011;16133;49.486;12.176;2023-04-07T00:43:59;21.48;;;10.40;;
29044;SDS011;16133;49.486;12.176;2023-04-07T00:46:25;19.52;;;10.60;;
29044;SDS011;16133;49.486;12.176;2023-04-07T00:48:51;24.85;;;11.00;;
29044;SDS011;16133;49.486;12.176;2023-04-07T00:51:17;22.92;;;10.65;;
29044;SDS011;16133;49.486;12.176;2023-04-07T00:53:45;22.60;;;10.82;;
29044;SDS011;16133;49.486;12.176;2023-04-07T00:56:10;22.10;;;11.60;;
29044;SDS011;16133;49.486;12.176;2023-04-07T00:58:37;22.60;;;10.93;;
29044;SDS011;16133;49.486;12.176;2023-04-07T01:01:12;22.77;;;11.70;;
29044;SDS011;16133;49.486;12.176;2023-04-07T01:03:55;26.45;;;11.85;;
29044;SDS011;16133;49.486;12.176;2023-04-07T01:06:27;21.92;;;11.40;;
29044;SDS011;16133;49.486;12.176;2023-04-07T01:09:11;18.48;;;10.32;;
29044;SDS011;16133;49.486;12.176;2023-04-07T01:14:17;25.48;;;11.32;;
29044;SDS011;16133;49.486;12.176;2023-04-07T01:20:15;23.23;;;12.07;;
29044;SDS011;16133;49.486;12.176;2023-04-07T01:22:32;20.85;;;10.68;;
29044;SDS011;16133;49.486;12.176;2023-04-07T01:27:59;25.55;;;11.68;;
29044;SDS011;16133;49.486;12.176;2023-04-07T01:30:47;24.38;;;11.10;;
29044;SDS011;16133;49.486;12.176;2023-04-07T01:33:14;20.92;;;10.98;;
29044;SDS011;16133;49.486;12.176;2023-04-07T01:35:40;25.75;;;12.30;;
29044;SDS011;16133;49.486;12.176;2023-04-07T01:38:06;22.52;;;11.90;;
29044;SDS011;16133;49.486;12.176;2023-04-07T01:40:33;19.60;;;10.45;;
29044;SDS011;16133;49.486;12.176;2023-04-07T01:43:00;19.90;;;10.55;;
29044;SDS011;16133;49.486;12.176;2023-04-07T01:45:26;22.92;;;11.20;;
29044;SDS011;16133;49.486;12.176;2023-04-07T01:47:53;22.58;;;10.48;;
29044;SDS011;16133;49.486;12.176;2023-04-07T01:50:20;22.92;;;11.45;;
29044;SDS011;16133;49.486;12.176;2023-04-07T01:52:46;22.80;;;11.27;;
29044;SDS011;16133;49.486;12.176;2023-04-07T01:55:11;19.85;;;10.77;;
29044;SDS011;16133;49.486;12.176;2023-04-07T01:57:37;19.73;;;10.25;;
29044;SDS011;16133;49.486;12.176;2023-04-07T02:00:02;19.98;;;9.90;;
29044;SDS011;16133;49.486;12.176;2023-04-07T02:02:29;20.40;;;10.02;;
29044;SDS011;16133;49.486;12.176;2023-04-07T02:04:56;19.27;;;10.35;;
29044;SDS011;16133;49.486;12.176;2023-04-07T02:10:02;21.75;;;10.93;;
29044;SDS011;16133;49.486;12.176;2023-04-07T02:12:31;21.88;;;11.10;;
29044;SDS011;16133;49.486;12.176;2023-04-07T02:14:57;23.08;;;11.25;;
29044;SDS011;16133;49.486;12.176;2023-04-07T02:17:24;20.88;;;10.38;;
29044;SDS011;16133;49.486;12.176;2023-04-07T02:19:52;21.45;;;10.07;;
29044;SDS011;16133;49.486;12.176;2023-04-07T02:22:18;22.25;;;10.40;;
29044;SDS011;16133;49.486;12.176;2023-04-07T02:24:43;17.33;;;9.25;;
29044;SDS011;16133;49.486;12.176;2023-04-07T02:27:09;19.48;;;10.00;;
29044;SDS011;16133;49.486;12.176;2023-04-07T02:29:34;19.67;;;10.38;;
29044;SDS011;16133;49.486;12.176;2023-04-07T02:32:00;21.13;;;11.07;;
29044;SDS011;16133;49.486;12.176;2023-04-07T02:34:25;20.40;;;10.65;;
29044;SDS011;16133;49.486;12.176;2023-04-07T02:36:51;18.92;;;10.07;;
29044;SDS011;16133;49.486;12.176;2023-04-07T02:39:16;18.23;;;9.68;;
29044;SDS011;16133;49.486;12.176;2023-04-07T02:41:42;18.45;;;10.30;;
29044;SDS011;16133;49.486;12.176;2023-04-07T02:44:07;21.08;;;10.70;;
29044;SDS011;16133;49.486;12.176;2023-04-07T02:46:32;19.30;;;10.07;;
29044;SDS011;16133;49.486;12.176;2023-04-07T02:48:58;18.77;;;9.98;;
29044;SDS011;16133;49.486;12.176;2023-04-07T02:51:23;19.77;;;10.25;;
29044;SDS011;16133;49.486;12.176;2023-04-07T02:53:49;18.65;;;10.00;;
29044;SDS011;16133;49.486;12.176;2023-04-07T02:56:14;20.02;;;10.70;;
29044;SDS011;16133;49.486;12.176;2023-04-07T02:58:40;20.83;;;10.25;;
29044;SDS011;16133;49.486;12.176;2023-04-07T03:01:06;18.80;;;10.75;;
29044;SDS011;16133;49.486;12.176;2023-04-07T03:03:31;22.52;;;10.85;;
29044;SDS011;16133;49.486;12.176;2023-04-07T03:05:57;23.65;;;11.13;;
29044;SDS011;16133;49.486;12.176;2023-04-07T03:08:22;23.17;;;11.00;;
29044;SDS011;16133;49.486;12.176;2023-04-07T03:10:47;25.33;;;10.65;;
29044;SDS011;16133;49.486;12.176;2023-04-07T03:13:13;21.77;;;10.75;;
29044;SDS011;16133;49.486;12.176;2023-04-07T03:15:40;23.73;;;10.30;;
29044;SDS011;16133;49.486;12.176;2023-04-07T03:18:07;22.38;;;10.52;;
29044;SDS011;16133;49.486;12.176;2023-04-07T03:20:32;20.15;;;10.10;;
29044;SDS011;16133;49.486;12.176;2023-04-07T03:22:58;18.52;;;10.02;;
29044;SDS011;16133;49.486;12.176;2023-04-07T03:25:24;21.65;;;10.57;;
29044;SDS011;16133;49.486;12.176;2023-04-07T03:27:50;17.67;;;9.88;;
29044;SDS011;16133;49.486;12.176;2023-04-07T03:30:16;20.73;;;10.38;;
29044;SDS011;16133;49.486;12.176;2023-04-07T03:32:41;19.33;;;10.30;;
29044;SDS011;16133;49.486;12.176;2023-04-07T03:35:07;20.63;;;10.95;;
29044;SDS011;16133;49.486;12.176;2023-04-07T03:37:32;22.13;;;10.70;;
29044;SDS011;16133;49.486;12.176;2023-04-07T03:39:58;18.35;;;10.35;;
29044;SDS011;16133;49.486;12.176;2023-04-07T03:42:23;21.23;;;9.88;;
29044;SDS011;16133;49.486;12.176;2023-04-07T03:44:48;22.35;;;10.90;;
29044;SDS011;16133;49.486;12.176;2023-04-07T03:47:14;21.85;;;10.30;;
29044;SDS011;16133;49.486;12.176;2023-04-07T03:49:40;20.35;;;9.68;;
29044;SDS011;16133;49.486;12.176;2023-04-07T03:52:05;21.33;;;9.73;;
29044;SDS011;16133;49.486;12.176;2023-04-07T03:54:30;19.85;;;9.73;;
29044;SDS011;16133;49.486;12.176;2023-04-07T03:56:56;23.05;;;10.57;;
29044;SDS011;16133;49.486;12.176;2023-04-07T03:59:21;22.52;;;11.30;;
29044;SDS011;16133;49.486;12.176;2023-04-07T04:01:47;21.40;;;10.57;;
29044;SDS011;16133;49.486;12.176;2023-04-07T04:04:12;17.20;;;9.32;;
29044;SDS011;16133;49.486;12.176;2023-04-07T04:06:38;21.58;;;11.05;;
29044;SDS011;16133;49.486;12.176;2023-04-07T04:09:03;21.92;;;10.32;;
29044;SDS011;16133;49.486;12.176;2023-04-07T04:11:29;22.33;;;10.15;;
29044;SDS011;16133;49.486;12.176;2023-04-07T04:13:55;18.05;;;9.40;;
29044;SDS011;16133;49.486;12.176;2023-04-07T04:16:20;18.52;;;9.57;;
29044;SDS011;16133;49.486;12.176;2023-04-07T04:18:46;20.40;;;10.57;;
29044;SDS011;16133;49.486;12.176;2023-04-07T04:21:11;19.35;;;10.05;;
29044;SDS011;16133;49.486;12.176;2023-04-07T04:23:37;18.40;;;9.80;;
29044;SDS011;16133;49.486;12.176;2023-04-07T04:26:02;20.48;;;10.27;;
29044;SDS011;16133;49.486;12.176;2023-04-07T04:28:28;19.83;;;9.77;;
29044;SDS011;16133;49.486;12.176;2023-04-07T04:30:53;20.50;;;10.40;;
29044;SDS011;16133;49.486;12.176;2023-04-07T04:33:19;26.17;;;11.05;;
29044;SDS011;16133;49.486;12.176;2023-04-07T04:35:45;28.70;;;11.48;;
29044;SDS011;16133;49.486;12.176;2023-04-07T04:38:10;27.42;;;12.10;;
29044;SDS011;16133;49.486;12.176;2023-04-07T04:40:36;21.15;;;11.25;;
29044;SDS011;16133;49.486;12.176;2023-04-07T04:43:01;18.25;;;9.80;;
29044;SDS011;16133;49.486;12.176;2023-04-07T04:45:30;27.30;;;10.98;;
29044;SDS011;16133;49.486;12.176;2023-04-07T04:47:56;20.90;;;11.40;;
29044;SDS011;16133;49.486;12.176;2023-04-07T04:50:21;21.63;;;11.52;;
29044;SDS011;16133;49.486;12.176;2023-04-07T04:52:47;18.90;;;9.90;;
29044;SDS011;16133;49.486;12.176;2023-04-07T04:55:12;24.45;;;11.15;;
29044;SDS011;16133;49.486;12.176;2023-04-07T04:57:37;20.38;;;10.32;;
29044;SDS011;16133;49.486;12.176;2023-04-07T05:00:03;23.25;;;10.80;;
29044;SDS011;16133;49.486;12.176;2023-04-07T05:02:31;21.85;;;11.02;;
29044;SDS011;16133;49.486;12.176;2023-04-07T05:04:57;26.98;;;12.73;;
29044;SDS011;16133;49.486;12.176;2023-04-07T05:07:22;23.70;;;12.98;;
29044;SDS011;16133;49.486;12.176;2023-04-07T05:09:48;26.40;;;13.23;;
29044;SDS011;16133;49.486;12.176;2023-04-07T05:12:14;28.48;;;12.77;;
29044;SDS011;16133;49.486;12.176;2023-04-07T05:14:40;26.58;;;12.77;;
29044;SDS011;16133;49.486;12.176;2023-04-07T05:17:05;29.98;;;12.23;;
29044;SDS011;16133;49.486;12.176;2023-04-07T05:19:31;26.17;;;12.50;;
29044;SDS011;16133;49.486;12.176;2023-04-07T05:21:56;26.23;;;13.05;;
29044;SDS011;16133;49.486;12.176;2023-04-07T05:24:22;24.00;;;12.82;;
29044;SDS011;16133;49.486;12.176;2023-04-07T05:26:50;31.73;;;14.77;;
29044;SDS011;16133;49.486;12.176;2023-04-07T05:29:15;33.42;;;17.15;;
29044;SDS011;16133;49.486;12.176;2023-04-07T05:31:40;31.08;;;15.63;;
29044;SDS011;16133;49.486;12.176;2023-04-07T05:34:05;34.63;;;16.80;;
29044;SDS011;16133;49.486;12.176;2023-04-07T05:36:32;27.58;;;15.02;;
29044;SDS011;16133;49.486;12.176;2023-04-07T05:38:57;32.22;;;15.55;;
29044;SDS011;16133;49.486;12.176;2023-04-07T05:41:23;32.83;;;16.23;;
29044;SDS011;16133;49.486;12.176;2023-04-07T05:43:48;30.98;;;15.35;;
29044;SDS011;16133;49.486;12.176;2023-04-07T05:46:13;32.80;;;15.82;;
29044;SDS011;16133;49.486;12.176;2023-04-07T05:48:38;36.28;;;17.27;;
29044;SDS011;16133;49.486;12.176;2023-04-07T05:51:04;35.72;;;17.00;;
29044;SDS011;16133;49.486;12.176;2023-04-07T05:53:30;36.58;;;16.30;;
29044;SDS011;16133;49.486;12.176;2023-04-07T05:55:55;33.25;;;16.70;;
29044;SDS011;16133;49.486;12.176;2023-04-07T05:58:20;34.22;;;16.25;;
29044;SDS011;16133;49.486;12.176;2023-04-07T06:00:46;30.60;;;14.15;;
29044;SDS011;16133;49.486;12.176;2023-04-07T06:03:11;26.73;;;14.77;;
29044;SDS011;16133;49.486;12.176;2023-04-07T06:05:36;30.23;;;16.45;;
29044;SDS011;16133;49.486;12.176;2023-04-07T06:08:07;32.78;;;15.43;;
29044;SDS011;16133;49.486;12.176;2023-04-07T06:10:32;33.08;;;16.27;;
29044;SDS011;16133;49.486;12.176;2023-04-07T06:12:57;31.65;;;15.93;;
29044;SDS011;16133;49.486;12.176;2023-04-07T06:15:22;33.78;;;15.98;;
29044;SDS011;16133;49.486;12.176;2023-04-07T06:17:48;31.45;;;15.82;;
29044;SDS011;16133;49.486;12.176;2023-04-07T06:20:13;29.45;;;14.88;;
29044;SDS011;16133;49.486;12.176;2023-04-07T06:22:38;30.83;;;15.15;;
29044;SDS011;16133;49.486;12.176;2023-04-07T06:25:04;31.40;;;14.48;;
29044;SDS011;16133;49.486;12.176;2023-04-07T06:27:30;23.77;;;12.35;;
29044;SDS011;16133;49.486;12.176;2023-04-07T06:29:57;25.83;;;13.18;;
29044;SDS011;16133;49.486;12.176;2023-04-07T06:32:22;29.58;;;13.50;;
29044;SDS011;16133;49.486;12.176;2023-04-07T06:34:47;28.80;;;13.98;;
29044;SDS011;16133;49.486;12.176;2023-04-07T06:37:13;28.15;;;13.68;;
29044;SDS011;16133;49.486;12.176;2023-04-07T06:39:38;26.77;;;13.77;;
29044;SDS011;16133;49.486;12.176;2023-04-07T06:42:03;27.45;;;13.20;;
29044;SDS011;16133;49.486;12.176;2023-04-07T06:44:29;29.98;;;13.38;;
29044;SDS011;16133;49.486;12.176;2023-04-07T06:46:54;25.80;;;13.13;;
29044;SDS011;16133;49.486;12.176;2023-04-07T06:49:19;23.02;;;12.45;;
29044;SDS011;16133;49.486;12.176;2023-04-07T06:51:45;25.65;;;12.13;;
29044;SDS011;16133;49.486;12.176;2023-04-07T06:54:10;23.88;;;12.27;;
29044;SDS011;16133;49.486;12.176;2023-04-07T06:56:38;24.98;;;12.32;;
29044;SDS011;16133;49.486;12.176;2023-04-07T06:59:04;24.65;;;12.52;;
29044;SDS011;16133;49.486;12.176;2023-04-07T07:01:29;23.80;;;11.93;;
29044;SDS011;16133;49.486;12.176;2023-04-07T07:03:54;20.40;;;10.68;;
29044;SDS011;16133;49.486;12.176;2023-04-07T07:06:20;22.83;;;12.40;;
29044;SDS011;16133;49.486;12.176;2023-04-07T07:08:45;23.23;;;12.27;;
29044;SDS011;16133;49.486;12.176;2023-04-07T07:11:10;23.83;;;11.90;;
29044;SDS011;16133;49.486;12.176;2023-04-07T07:13:36;21.73;;;11.05;;
29044;SDS011;16133;49.486;12.176;2023-04-07T07:16:01;19.63;;;10.35;;
29044;SDS011;16133;49.486;12.176;2023-04-07T07:18:26;25.38;;;11.85;;
29044;SDS011;16133;49.486;12.176;2023-04-07T07:20:52;19.95;;;10.48;;
29044;SDS011;16133;49.486;12.176;2023-04-07T07:23:17;18.20;;;10.38;;
29044;SDS011;16133;49.486;12.176;2023-04-07T07:25:43;18.40;;;9.85;;
29044;SDS011;16133;49.486;12.176;2023-04-07T07:28:09;16.45;;;9.85;;
29044;SDS011;16133;49.486;12.176;2023-04-07T07:30:34;19.40;;;9.50;;
29044;SDS011;16133;49.486;12.176;2023-04-07T07:32:59;15.65;;;9.05;;
29044;SDS011;16133;49.486;12.176;2023-04-07T07:35:25;15.52;;;9.25;;
29044;SDS011;16133;49.486;12.176;2023-04-07T07:37:50;15.23;;;8.05;;
29044;SDS011;16133;49.486;12.176;2023-04-07T07:40:16;19.52;;;9.07;;
29044;SDS011;16133;49.486;12.176;2023-04-07T07:42:42;15.52;;;8.30;;
29044;SDS011;16133;49.486;12.176;2023-04-07T07:45:10;12.32;;;6.97;;
29044;SDS011;16133;49.486;12.176;2023-04-07T07:47:37;12.75;;;7.47;;
29044;SDS011;16133;49.486;12.176;2023-04-07T07:50:03;13.77;;;7.25;;
29044;SDS011;16133;49.486;12.176;2023-04-07T07:52:29;13.82;;;7.63;;
29044;SDS011;16133;49.486;12.176;2023-04-07T07:54:55;12.82;;;7.50;;
29044;SDS011;16133;49.486;12.176;2023-04-07T07:57:20;11.60;;;6.72;;
29044;SDS011;16133;49.486;12.176;2023-04-07T07:59:46;14.25;;;7.57;;
29044;SDS011;16133;49.486;12.176;2023-04-07T08:02:11;14.00;;;7.47;;
29044;SDS011;16133;49.486;12.176;2023-04-07T08:04:36;14.02;;;6.53;;
29044;SDS011;16133;49.486;12.176;2023-04-07T08:07:02;12.48;;;6.80;;
29044;SDS011;16133;49.486;12.176;2023-04-07T08:09:29;14.13;;;7.40;;
29044;SDS011;16133;49.486;12.176;2023-04-07T08:11:56;12.77;;;6.30;;
29044;SDS011;16133;49.486;12.176;2023-04-07T08:14:21;11.95;;;7.10;;
29044;SDS011;16133;49.486;12.176;2023-04-07T08:16:47;13.82;;;7.05;;
29044;SDS011;16133;49.486;12.176;2023-04-07T08:19:12;12.23;;;6.65;;
29044;SDS011;16133;49.486;12.176;2023-04-07T08:21:37;13.85;;;6.97;;
29044;SDS011;16133;49.486;12.176;2023-04-07T08:24:03;14.18;;;6.57;;
29044;SDS011;16133;49.486;12.176;2023-04-07T08:26:29;12.50;;;7.00;;
29044;SDS011;16133;49.486;12.176;2023-04-07T08:28:55;13.88;;;6.60;;
29044;SDS011;16133;49.486;12.176;2023-04-07T08:31:20;14.60;;;6.82;;
29044;SDS011;16133;49.486;12.176;2023-04-07T08:33:46;12.68;;;6.13;;
29044;SDS011;16133;49.486;12.176;2023-04-07T08:36:11;13.73;;;6.25;;
29044;SDS011;16133;49.486;12.176;2023-04-07T08:38:37;14.02;;;6.80;;
29044;SDS011;16133;49.486;12.176;2023-04-07T08:41:12;14.55;;;7.57;;
29044;SDS011;16133;49.486;12.176;2023-04-07T08:43:41;17.20;;;7.45;;
29044;SDS011;16133;49.486;12.176;2023-04-07T08:46:09;13.82;;;6.55;;
29044;SDS011;16133;49.486;12.176;2023-04-07T08:48:37;15.70;;;7.45;;
29044;SDS011;16133;49.486;12.176;2023-04-07T08:51:03;14.93;;;7.05;;
29044;SDS011;16133;49.486;12.176;2023-04-07T08:53:34;17.50;;;7.47;;
29044;SDS011;16133;49.486;12.176;2023-04-07T08:56:20;16.67;;;7.88;;
29044;SDS011;16133;49.486;12.176;2023-04-07T08:58:47;22.00;;;8.85;;
29044;SDS011;16133;49.486;12.176;2023-04-07T09:01:13;16.13;;;8.20;;
29044;SDS011;16133;49.486;12.176;2023-04-07T09:03:40;13.13;;;7.78;;
29044;SDS011;16133;49.486;12.176;2023-04-07T09:06:08;18.73;;;9.18;;
29044;SDS011;16133;49.486;12.176;2023-04-07T09:08:35;13.10;;;7.63;;
29044;SDS011;16133;49.486;12.176;2023-04-07T09:11:00;15.45;;;8.48;;
29044;SDS011;16133;49.486;12.176;2023-04-07T09:13:26;17.73;;;8.43;;
29044;SDS011;16133;49.486;12.176;2023-04-07T09:15:51;17.55;;;8.05;;
29044;SDS011;16133;49.486;12.176;2023-04-07T09:18:17;17.40;;;7.93;;
29044;SDS011;16133;49.486;12.176;2023-04-07T09:21:02;15.30;;;7.63;;
29044;SDS011;16133;49.486;12.176;2023-04-07T09:23:33;16.92;;;8.13;;
29044;SDS011;16133;49.486;12.176;2023-04-07T09:26:00;16.13;;;8.52;;
29044;SDS011;16133;49.486;12.176;2023-04-07T09:28:45;15.75;;;8.38;;
29044;SDS011;16133;49.486;12.176;2023-04-07T09:31:12;16.27;;;7.82;;
29044;SDS011;16133;49.486;12.176;2023-04-07T09:33:38;13.15;;;7.28;;
29044;SDS011;16133;49.486;12.176;2023-04-07T09:36:06;15.50;;;7.47;;
29044;SDS011;16133;49.486;12.176;2023-04-07T09:38:32;14.00;;;8.20;;
29044;SDS011;16133;49.486;12.176;2023-04-07T09:41:09;15.05;;;8.07;;
29044;SDS011;16133;49.486;12.176;2023-04-07T09:43:37;16.52;;;7.63;;
29044;SDS011;16133;49.486;12.176;2023-04-07T09:46:13;18.30;;;8.60;;
29044;SDS011;16133;49.486;12.176;2023-04-07T09:48:40;18.55;;;9.27;;
29044;SDS011;16133;49.486;12.176;2023-04-07T09:51:08;17.88;;;8.35;;
29044;SDS011;16133;49.486;12.176;2023-04-07T09:53:45;15.20;;;7.65;;
29044;SDS011;16133;49.486;12.176;2023-04-07T09:56:20;15.15;;;7.78;;
29044;SDS011;16133;49.486;12.176;2023-04-07T09:58:49;15.75;;;7.75;;
29044;SDS011;16133;49.486;12.176;2023-04-07T10:01:18;17.67;;;8.77;;
29044;SDS011;16133;49.486;12.176;2023-04-07T10:03:45;16.67;;;8.90;;
29044;SDS011;16133;49.486;12.176;2023-04-07T10:06:11;18.88;;;8.02;;
29044;SDS011;16133;49.486;12.176;2023-04-07T10:08:37;19.63;;;8.85;;
29044;SDS011;16133;49.486;12.176;2023-04-07T10:11:05;18.75;;;8.57;;
29044;SDS011;16133;49.486;12.176;2023-04-07T10:13:31;17.05;;;8.10;;
29044;SDS011;16133;49.486;12.176;2023-04-07T10:15:58;19.25;;;9.40;;
29044;SDS011;16133;49.486;12.176;2023-04-07T10:18:30;17.73;;;8.70;;
29044;SDS011;16133;49.486;12.176;2023-04-07T10:21:04;23.02;;;9.50;;
29044;SDS011;16133;49.486;12.176;2023-04-07T10:23:57;19.13;;;9.65;;
29044;SDS011;16133;49.486;12.176;2023-04-07T10:26:24;22.55;;;10.98;;
29044;SDS011;16133;49.486;12.176;2023-04-07T10:28:54;21.60;;;9.27;;
29044;SDS011;16133;49.486;12.176;2023-04-07T10:31:24;23.08;;;9.80;;
29044;SDS011;16133;49.486;12.176;2023-04-07T10:33:51;17.50;;;8.45;;
29044;SDS011;16133;49.486;12.176;2023-04-07T10:36:18;17.90;;;8.63;;
29044;SDS011;16133;49.486;12.176;2023-04-07T10:39:27;18.50;;;8.70;;
29044;SDS011;16133;49.486;12.176;2023-04-07T10:41:34;17.13;;;8.15;;
29044;SDS011;16133;49.486;12.176;2023-04-07T10:44:08;16.75;;;7.82;;
29044;SDS011;16133;49.486;12.176;2023-04-07T10:49:09;17.77;;;9.02;;
29044;SDS011;16133;49.486;12.176;2023-04-07T10:51:35;15.07;;;7.22;;
29044;SDS011;16133;49.486;12.176;2023-04-07T10:54:13;18.95;;;8.23;;
29044;SDS011;16133;49.486;12.176;2023-04-07T10:57:03;16.92;;;8.93;;
29044;SDS011;16133;49.486;12.176;2023-04-07T10:59:28;16.23;;;8.88;;
29044;SDS011;16133;49.486;12.176;2023-04-07T11:07:05;15.57;;;7.88;;
29044;SDS011;16133;49.486;12.176;2023-04-07T11:09:31;16.33;;;7.90;;
29044;SDS011;16133;49.486;12.176;2023-04-07T11:11:56;15.40;;;7.40;;
29044;SDS011;16133;49.486;12.176;2023-04-07T11:14:31;14.85;;;7.43;;
29044;SDS011;16133;49.486;12.176;2023-04-07T11:16:58;19.33;;;8.73;;
29044;SDS011;16133;49.486;12.176;2023-04-07T11:19:27;13.57;;;7.97;;
29044;SDS011;16133;49.486;12.176;2023-04-07T11:24:44;15.23;;;8.27;;
29044;SDS011;16133;49.486;12.176;2023-04-07T11:27:11;14.40;;;8.07;;
29044;SDS011;16133;49.486;12.176;2023-04-07T11:29:37;15.40;;;8.00;;
29044;SDS011;16133;49.486;12.176;2023-04-07T11:32:03;13.50;;;6.95;;
29044;SDS011;16133;49.486;12.176;2023-04-07T11:34:29;15.35;;;9.60;;
29044;SDS011;16133;49.486;12.176;2023-04-07T11:36:55;14.98;;;8.00;;
29044;SDS011;16133;49.486;12.176;2023-04-07T11:39:24;15.55;;;8.15;;
29044;SDS011;16133;49.486;12.176;2023-04-07T11:41:55;17.15;;;8.80;;
29044;SDS011;16133;49.486;12.176;2023-04-07T11:44:21;10.88;;;6.03;;
29044;SDS011;16133;49.486;12.176;2023-04-07T11:49:18;15.82;;;8.23;;
29044;SDS011;16133;49.486;12.176;2023-04-07T11:51:44;13.90;;;7.07;;
29044;SDS011;16133;49.486;12.176;2023-04-07T11:54:10;16.58;;;8.00;;
29044;SDS011;16133;49.486;12.176;2023-04-07T11:56:46;12.35;;;6.65;;
29044;SDS011;16133;49.486;12.176;2023-04-07T11:59:24;19.42;;;8.32;;
29044;SDS011;16133;49.486;12.176;2023-04-07T12:01:50;14.95;;;8.10;;
29044;SDS011;16133;49.486;12.176;2023-04-07T12:04:16;13.23;;;7.38;;
29044;SDS011;16133;49.486;12.176;2023-04-07T12:06:43;13.02;;;7.22;;
29044;SDS011;16133;49.486;12.176;2023-04-07T12:09:24;12.60;;;6.18;;
29044;SDS011;16133;49.486;12.176;2023-04-07T12:11:58;12.55;;;6.50;;
29044;SDS011;16133;49.486;12.176;2023-04-07T12:14:24;13.68;;;7.30;;
29044;SDS011;16133;49.486;12.176;2023-04-07T12:16:50;19.85;;;9.43;;
29044;SDS011;16133;49.486;12.176;2023-04-07T12:19:16;16.42;;;8.55;;
29044;SDS011;16133;49.486;12.176;2023-04-07T12:21:42;16.08;;;8.35;;
29044;SDS011;16133;49.486;12.176;2023-04-07T12:24:07;12.75;;;7.25;;
29044;SDS011;16133;49.486;12.176;2023-04-07T12:26:33;16.15;;;8.02;;
29044;SDS011;16133;49.486;12.176;2023-04-07T12:28:58;14.88;;;7.53;;
29044;SDS011;16133;49.486;12.176;2023-04-07T12:31:29;15.40;;;7.70;;
29044;SDS011;16133;49.486;12.176;2023-04-07T12:33:57;15.05;;;7.40;;
29044;SDS011;16133;49.486;12.176;2023-04-07T12:36:26;11.77;;;6.70;;
29044;SDS011;16133;49.486;12.176;2023-04-07T12:38:51;10.30;;;6.63;;
29044;SDS011;16133;49.486;12.176;2023-04-07T12:41:17;12.73;;;6.90;;
29044;SDS011;16133;49.486;12.176;2023-04-07T12:43:43;12.35;;;6.00;;
29044;SDS011;16133;49.486;12.176;2023-04-07T12:46:08;12.88;;;7.00;;
29044;SDS011;16133;49.486;12.176;2023-04-07T12:48:33;9.73;;;5.70;;
29044;SDS011;16133;49.486;12.176;2023-04-07T12:50:59;11.18;;;6.85;;
29044;SDS011;16133;49.486;12.176;2023-04-07T12:53:25;14.45;;;6.70;;
29044;SDS011;16133;49.486;12.176;2023-04-07T12:55:51;10.90;;;6.05;;
29044;SDS011;16133;49.486;12.176;2023-04-07T12:58:16;11.95;;;6.45;;
29044;SDS011;16133;49.486;12.176;2023-04-07T13:00:43;12.15;;;6.63;;
29044;SDS011;16133;49.486;12.176;2023-04-07T13:03:08;15.48;;;7.97;;
29044;SDS011;16133;49.486;12.176;2023-04-07T13:05:34;14.60;;;7.93;;
29044;SDS011;16133;49.486;12.176;2023-04-07T13:07:59;13.05;;;7.85;;
29044;SDS011;16133;49.486;12.176;2023-04-07T13:10:25;16.85;;;7.57;;
29044;SDS011;16133;49.486;12.176;2023-04-07T13:12:51;12.77;;;7.47;;
29044;SDS011;16133;49.486;12.176;2023-04-07T13:15:17;10.60;;;6.20;;
29044;SDS011;16133;49.486;12.176;2023-04-07T13:17:43;9.13;;;5.32;;
29044;SDS011;16133;49.486;12.176;2023-04-07T13:20:08;12.18;;;5.60;;
29044;SDS011;16133;49.486;12.176;2023-04-07T13:22:33;10.32;;;5.20;;
29044;SDS011;16133;49.486;12.176;2023-04-07T13:24:59;9.40;;;5.25;;
29044;SDS011;16133;49.486;12.176;2023-04-07T13:27:24;7.50;;;4.38;;
29044;SDS011;16133;49.486;12.176;2023-04-07T13:29:49;9.63;;;4.93;;
29044;SDS011;16133;49.486;12.176;2023-04-07T13:32:15;15.35;;;6.55;;
29044;SDS011;16133;49.486;12.176;2023-04-07T13:34:41;10.02;;;6.05;;
29044;SDS011;16133;49.486;12.176;2023-04-07T13:37:06;10.25;;;6.20;;
29044;SDS011;16133;49.486;12.176;2023-04-07T13:39:32;8.15;;;5.20;;
29044;SDS011;16133;49.486;12.176;2023-04-07T13:41:57;9.70;;;6.40;;
29044;SDS011;16133;49.486;12.176;2023-04-07T13:44:24;10.75;;;6.15;;
29044;SDS011;16133;49.486;12.176;2023-04-07T13:46:50;8.95;;;5.30;;
29044;SDS011;16133;49.486;12.176;2023-04-07T13:49:16;10.85;;;6.35;;
29044;SDS011;16133;49.486;12.176;2023-04-07T13:51:41;11.63;;;7.15;;
29044;SDS011;16133;49.486;12.176;2023-04-07T13:54:07;9.60;;;5.85;;
29044;SDS011;16133;49.486;12.176;2023-04-07T13:56:32;12.98;;;6.50;;
29044;SDS011;16133;49.486;12.176;2023-04-07T13:58:59;11.10;;;6.32;;
29044;SDS011;16133;49.486;12.176;2023-04-07T14:01:25;11.98;;;5.97;;
29044;SDS011;16133;49.486;12.176;2023-04-07T14:03:51;9.80;;;6.30;;
29044;SDS011;16133;49.486;12.176;2023-04-07T14:06:17;12.45;;;6.90;;
29044;SDS011;16133;49.486;12.176;2023-04-07T14:08:42;9.07;;;5.85;;
29044;SDS011;16133;49.486;12.176;2023-04-07T14:11:08;12.90;;;6.47;;
29044;SDS011;16133;49.486;12.176;2023-04-07T14:13:33;9.98;;;6.18;;
29044;SDS011;16133;49.486;12.176;2023-04-07T14:15:58;6.95;;;4.70;;
29044;SDS011;16133;49.486;12.176;2023-04-07T14:18:24;11.68;;;6.95;;
29044;SDS011;16133;49.486;12.176;2023-04-07T14:20:51;15.98;;;8.80;;
29044;SDS011;16133;49.486;12.176;2023-04-07T14:23:17;9.80;;;5.45;;
29044;SDS011;16133;49.486;12.176;2023-04-07T14:25:42;9.32;;;5.32;;
29044;SDS011;16133;49.486;12.176;2023-04-07T14:28:07;11.52;;;6.13;;
29044;SDS011;16133;49.486;12.176;2023-04-07T14:30:36;15.95;;;6.43;;
29044;SDS011;16133;49.486;12.176;2023-04-07T14:33:04;8.55;;;5.10;;
29044;SDS011;16133;49.486;12.176;2023-04-07T14:35:30;10.80;;;6.65;;
29044;SDS011;16133;49.486;12.176;2023-04-07T14:37:55;10.23;;;5.90;;